Progress Software Price to Book Ratio 2010-2024 | PRGS

Historical price to book ratio values for Progress Software (PRGS) over the last 10 years. The current price to book ratio for Progress Software as of July 18, 2024 is 6.01.

Please refer to the Stock Price Adjustment Guide for more information on our historical prices.

Progress Software Price/Book Ratio Historical Data
Date Stock Price Book Value per Share Price to Book Ratio
2024-07-19 55.54 5.95
2024-05-31 50.47 $9.33 5.41
2024-02-29 53.17 $10.57 5.03
2023-11-30 53.50 $10.50 5.10
2023-08-31 60.23 $10.22 5.90
2023-05-31 59.23 $9.66 6.13
2023-02-28 56.54 $9.55 5.92
2022-11-30 52.33 $9.21 5.68
2022-08-31 47.08 $8.53 5.52
2022-05-31 47.08 $8.56 5.50
2022-02-28 42.81 $8.42 5.09
2021-11-30 46.86 $9.34 5.02
2021-08-31 44.87 $9.05 4.96
2021-05-31 42.79 $8.36 5.12
2021-02-28 40.69 $8.01 5.08
2020-11-30 38.19 $7.82 4.88
2020-08-31 35.93 $8.16 4.40
2020-05-31 38.15 $7.55 5.05
2020-02-29 35.07 $7.33 4.79
2019-11-30 39.33 $7.33 5.36
2019-08-31 35.23 $7.43 4.74
2019-05-31 38.04 $7.05 5.40
2018-11-30 32.40 $7.18 4.51
2018-08-31 37.55 $6.77 5.55
2018-05-31 34.63 $6.79 5.10
2018-02-28 42.69 $7.51 5.69
2017-11-30 37.54 $7.95 4.72
2019-02-28 34.03 $6.90 4.93
2017-08-31 30.39 $8.19 3.71
2017-05-31 26.33 $8.14 3.24
2017-02-28 25.75 $8.00 3.22
2016-11-30 26.43 $8.38 3.16
2016-08-31 25.83 $10.18 2.54
2016-05-31 23.44 $10.05 2.33
2016-02-29 22.45 $10.36 2.17
2015-11-30 21.36 $10.33 2.07
2015-08-31 24.12 $10.55 2.29
2015-05-31 23.44 $10.46 2.24
2015-02-28 24.34 $10.64 2.29
2014-11-30 22.96 $10.72 2.14
2014-08-31 20.62 $10.46 1.97
2014-05-31 19.34 $10.24 1.89
2014-02-28 22.20 $10.22 2.17
2013-11-30 23.45 $9.97 2.35
2013-08-31 21.78 $9.93 2.19
2013-05-31 20.93 $10.03 2.09
2013-02-28 20.05 $10.55 1.90
2012-11-30 17.90 $10.71 1.67
2012-08-31 17.12 $10.68 1.60
2012-05-31 17.11 $10.42 1.64
2011-11-30 18.13 $10.12 1.79
2011-08-31 18.54 $10.44 1.78
2011-05-31 24.10 $10.73 2.25
2011-02-28 26.14 $10.67 2.45
2010-11-30 22.86 $10.35 2.21
2012-02-29 20.67 $10.42 1.98
2010-08-31 15.85 $9.81 1.62
2010-05-31 18.96 $9.67 1.96
2010-02-28 16.63 $9.14 1.82
2009-11-30 14.29 $6.08 2.35
2009-08-31 13.22 $8.71 1.52
2009-05-31 13.31 $8.45 1.57
2009-02-28 9.46 $8.14 1.16
Sector Industry Market Cap Revenue
Computer and Technology Computer Software $2.414B $0.694B
Progress offers the leading platform for developing and deploying mission-critical business applications. Progress empowers enterprises and ISVs to build and deliver cognitive-first applications that harness big data to derive business insights and competitive advantage. Progress offers leading technologies for easily building powerful user interfaces across any type of device, a reliable, scalable and secure backend platform to deploy modern applications, leading data connectivity to all sources, and award-winning predictive analytics that brings the power of machine learning to any organization.
Stock Name Country Market Cap PE Ratio
Microsoft (MSFT) United States $3272.965B 38.13
Oracle (ORCL) United States $380.391B 30.88
Adobe (ADBE) United States $246.907B 39.95
Salesforce (CRM) United States $239.682B 35.69
Intuit (INTU) United States $178.203B 55.53
Synopsys (SNPS) United States $85.859B 59.17
Cadence Design Systems (CDNS) United States $75.687B 71.98
Autodesk (ADSK) United States $52.328B 47.70
Dassault Systemes SA (DASTY) France $49.469B 32.14
MicroStrategy (MSTR) United States $27.585B 0.00
ANSYS (ANSS) United States $27.558B 51.00
PTC (PTC) United States $21.077B 55.90
SS&C Technologies Holdings (SSNC) United States $16.724B 15.84
Manhattan Associates (MANH) United States $13.487B 71.58
Descartes Systems Group (DSGX) Canada $8.417B 70.41
Open Text (OTEX) Canada $8.261B 8.48
Trend Micro (TMICY) Japan $6.332B 45.86
CommVault Systems (CVLT) United States $5.304B 85.94
Pegasystems (PEGA) United States $5.069B 44.83
ACI Worldwide (ACIW) United States $4.408B 21.12
Blackbaud (BLKB) United States $3.975B 34.22
Sapiens (SPNS) Israel $2.149B 29.31
Verint Systems (VRNT) United States $2.055B 19.25
BlackBerry (BB) Canada $1.423B 0.00
PROS Holdings (PRO) United States $1.115B 0.00
Simulations Plus (SLP) United States $0.828B 61.73
Rand Worldwide (RWWI) United States $0.663B 0.00
Magic Software Enterprises (MGIC) Israel $0.552B 11.72
Canaan (CAN) China $0.331B 0.00
American Software (AMSWA) United States $0.323B 27.77
Rigetti Computing (RGTI) United States $0.187B 0.00
OptimizeRx (OPRX) United States $0.186B 0.00
Neonode (NEON) Sweden $0.049B 0.00
Icad Inc (ICAD) United States $0.036B 0.00
NetSol Technologies (NTWK) United States $0.032B 0.00
Wetouch Technology (WETH) $0.028B 0.00
Smith Micro Software (SMSI) United States $0.022B 0.00
Hanryu Holdings (HRYU) South Korea $0.015B 0.00
GSE Systems (GVP) United States $0.011B 0.00
SAP SE (SAP) Germany $0.000B 50.44